sensor_id;sensor_type;location;lat;lon;timestamp;temperature;humidity
62573;DHT22;48626;51.678;5.806;2022-09-01T00:01:38;18.10;59.70
62573;DHT22;48626;51.678;5.806;2022-09-01T00:04:07;18.10;59.70
62573;DHT22;48626;51.678;5.806;2022-09-01T00:06:34;18.00;60.00
62573;DHT22;48626;51.678;5.806;2022-09-01T00:09:03;18.00;60.10
62573;DHT22;48626;51.678;5.806;2022-09-01T00:11:30;17.90;60.30
62573;DHT22;48626;51.678;5.806;2022-09-01T00:13:56;17.90;60.60
62573;DHT22;48626;51.678;5.806;2022-09-01T00:16:22;17.90;60.70
62573;DHT22;48626;51.678;5.806;2022-09-01T00:18:51;17.90;60.70
62573;DHT22;48626;51.678;5.806;2022-09-01T00:21:24;17.90;60.70
62573;DHT22;48626;51.678;5.806;2022-09-01T00:23:50;17.90;61.10
62573;DHT22;48626;51.678;5.806;2022-09-01T00:26:16;17.80;61.20
62573;DHT22;48626;51.678;5.806;2022-09-01T00:28:41;17.80;61.30
62573;DHT22;48626;51.678;5.806;2022-09-01T00:31:08;17.80;61.70
62573;DHT22;48626;51.678;5.806;2022-09-01T00:33:36;17.70;61.70
62573;DHT22;48626;51.678;5.806;2022-09-01T00:36:02;17.70;61.80
62573;DHT22;48626;51.678;5.806;2022-09-01T00:38:28;17.60;62.00
62573;DHT22;48626;51.678;5.806;2022-09-01T00:40:54;17.50;62.40
62573;DHT22;48626;51.678;5.806;2022-09-01T00:43:23;17.50;62.60
62573;DHT22;48626;51.678;5.806;2022-09-01T00:46:02;17.50;62.90
62573;DHT22;48626;51.678;5.806;2022-09-01T00:48:28;17.40;63.00
62573;DHT22;48626;51.678;5.806;2022-09-01T00:50:54;17.30;63.10
62573;DHT22;48626;51.678;5.806;2022-09-01T00:53:20;17.30;63.30
62573;DHT22;48626;51.678;5.806;2022-09-01T00:55:45;17.30;63.70
62573;DHT22;48626;51.678;5.806;2022-09-01T00:58:11;17.30;63.60
62573;DHT22;48626;51.678;5.806;2022-09-01T01:00:37;17.30;63.70
62573;DHT22;48626;51.678;5.806;2022-09-01T01:03:10;17.30;63.90
62573;DHT22;48626;51.678;5.806;2022-09-01T01:05:41;17.30;64.20
62573;DHT22;48626;51.678;5.806;2022-09-01T01:08:11;17.30;64.10
62573;DHT22;48626;51.678;5.806;2022-09-01T01:10:39;17.20;64.40
62573;DHT22;48626;51.678;5.806;2022-09-01T01:13:12;17.20;64.60
62573;DHT22;48626;51.678;5.806;2022-09-01T01:15:39;17.10;64.80
62573;DHT22;48626;51.678;5.806;2022-09-01T01:18:12;17.10;64.80
62573;DHT22;48626;51.678;5.806;2022-09-01T01:20:37;17.00;65.00
62573;DHT22;48626;51.678;5.806;2022-09-01T01:25:56;17.00;65.40
62573;DHT22;48626;51.678;5.806;2022-09-01T01:28:28;17.00;65.50
62573;DHT22;48626;51.678;5.806;2022-09-01T01:33:57;16.90;66.10
62573;DHT22;48626;51.678;5.806;2022-09-01T01:36:31;16.90;66.30
62573;DHT22;48626;51.678;5.806;2022-09-01T01:39:07;16.90;65.90
62573;DHT22;48626;51.678;5.806;2022-09-01T01:41:35;16.90;66.10
62573;DHT22;48626;51.678;5.806;2022-09-01T01:44:03;16.90;65.90
62573;DHT22;48626;51.678;5.806;2022-09-01T01:46:32;16.90;66.00
62573;DHT22;48626;51.678;5.806;2022-09-01T01:48:58;16.80;65.90
62573;DHT22;48626;51.678;5.806;2022-09-01T01:51:26;16.80;66.20
62573;DHT22;48626;51.678;5.806;2022-09-01T01:53:56;16.80;66.20
62573;DHT22;48626;51.678;5.806;2022-09-01T01:56:24;16.80;66.30
62573;DHT22;48626;51.678;5.806;2022-09-01T01:58:54;16.80;66.40
62573;DHT22;48626;51.678;5.806;2022-09-01T02:01:25;16.80;66.40
62573;DHT22;48626;51.678;5.806;2022-09-01T02:03:54;16.80;66.40
62573;DHT22;48626;51.678;5.806;2022-09-01T02:06:22;16.70;66.40
62573;DHT22;48626;51.678;5.806;2022-09-01T02:08:50;16.70;66.50
62573;DHT22;48626;51.678;5.806;2022-09-01T02:11:17;16.70;66.70
62573;DHT22;48626;51.678;5.806;2022-09-01T02:13:44;16.70;66.90
62573;DHT22;48626;51.678;5.806;2022-09-01T02:16:11;16.60;66.90
62573;DHT22;48626;51.678;5.806;2022-09-01T02:18:41;16.60;67.40
62573;DHT22;48626;51.678;5.806;2022-09-01T02:21:08;16.50;67.30
62573;DHT22;48626;51.678;5.806;2022-09-01T02:23:36;16.50;67.40
62573;DHT22;48626;51.678;5.806;2022-09-01T02:26:03;16.50;67.60
62573;DHT22;48626;51.678;5.806;2022-09-01T02:28:33;16.50;67.80
62573;DHT22;48626;51.678;5.806;2022-09-01T02:31:01;16.50;67.80
62573;DHT22;48626;51.678;5.806;2022-09-01T02:33:29;16.50;67.70
62573;DHT22;48626;51.678;5.806;2022-09-01T02:35:58;16.50;67.90
62573;DHT22;48626;51.678;5.806;2022-09-01T02:38:25;16.40;68.10
62573;DHT22;48626;51.678;5.806;2022-09-01T02:40:57;16.40;68.00
62573;DHT22;48626;51.678;5.806;2022-09-01T02:43:25;16.40;68.10
62573;DHT22;48626;51.678;5.806;2022-09-01T02:45:53;16.30;68.70
62573;DHT22;48626;51.678;5.806;2022-09-01T02:48:26;16.20;68.80
62573;DHT22;48626;51.678;5.806;2022-09-01T02:50:54;16.20;68.60
62573;DHT22;48626;51.678;5.806;2022-09-01T02:53:21;16.10;68.60
62573;DHT22;48626;51.678;5.806;2022-09-01T02:55:47;16.20;68.90
62573;DHT22;48626;51.678;5.806;2022-09-01T02:58:13;16.10;68.80
62573;DHT22;48626;51.678;5.806;2022-09-01T03:00:45;16.10;68.80
62573;DHT22;48626;51.678;5.806;2022-09-01T03:03:11;16.10;69.00
62573;DHT22;48626;51.678;5.806;2022-09-01T03:05:38;16.10;68.90
62573;DHT22;48626;51.678;5.806;2022-09-01T03:08:07;16.10;69.00
62573;DHT22;48626;51.678;5.806;2022-09-01T03:10:37;16.10;68.90
62573;DHT22;48626;51.678;5.806;2022-09-01T03:13:09;16.10;68.90
62573;DHT22;48626;51.678;5.806;2022-09-01T03:15:36;16.00;69.00
62573;DHT22;48626;51.678;5.806;2022-09-01T03:18:04;15.90;69.20
62573;DHT22;48626;51.678;5.806;2022-09-01T03:20:32;15.90;69.40
62573;DHT22;48626;51.678;5.806;2022-09-01T03:23:01;15.80;69.50
62573;DHT22;48626;51.678;5.806;2022-09-01T03:25:29;15.70;69.70
62573;DHT22;48626;51.678;5.806;2022-09-01T03:27:56;15.60;70.00
62573;DHT22;48626;51.678;5.806;2022-09-01T03:30:27;15.60;70.00
62573;DHT22;48626;51.678;5.806;2022-09-01T03:32:57;15.50;70.20
62573;DHT22;48626;51.678;5.806;2022-09-01T03:35:25;15.50;70.30
62573;DHT22;48626;51.678;5.806;2022-09-01T03:37:53;15.40;70.40
62573;DHT22;48626;51.678;5.806;2022-09-01T03:40:26;15.40;70.60
62573;DHT22;48626;51.678;5.806;2022-09-01T03:42:57;15.40;70.60
62573;DHT22;48626;51.678;5.806;2022-09-01T03:45:23;15.30;70.60
62573;DHT22;48626;51.678;5.806;2022-09-01T03:47:53;15.30;70.80
62573;DHT22;48626;51.678;5.806;2022-09-01T03:50:22;15.30;70.80
62573;DHT22;48626;51.678;5.806;2022-09-01T03:52:51;15.30;70.90
62573;DHT22;48626;51.678;5.806;2022-09-01T03:55:20;15.30;71.00
62573;DHT22;48626;51.678;5.806;2022-09-01T03:57:53;15.30;71.00
62573;DHT22;48626;51.678;5.806;2022-09-01T04:00:22;15.30;71.00
62573;DHT22;48626;51.678;5.806;2022-09-01T04:02:53;15.30;70.90
62573;DHT22;48626;51.678;5.806;2022-09-01T04:05:22;15.40;70.80
62573;DHT22;48626;51.678;5.806;2022-09-01T04:07:50;15.40;70.70
62573;DHT22;48626;51.678;5.806;2022-09-01T04:10:17;15.30;70.50
62573;DHT22;48626;51.678;5.806;2022-09-01T04:12:44;15.30;71.40
62573;DHT22;48626;51.678;5.806;2022-09-01T04:15:11;15.30;70.50
62573;DHT22;48626;51.678;5.806;2022-09-01T04:17:37;15.30;70.60
62573;DHT22;48626;51.678;5.806;2022-09-01T04:20:21;15.20;70.60
62573;DHT22;48626;51.678;5.806;2022-09-01T04:22:48;15.10;70.80
62573;DHT22;48626;51.678;5.806;2022-09-01T04:25:16;15.10;70.90
62573;DHT22;48626;51.678;5.806;2022-09-01T04:27:42;15.10;70.90
62573;DHT22;48626;51.678;5.806;2022-09-01T04:30:11;15.10;71.10
62573;DHT22;48626;51.678;5.806;2022-09-01T04:32:37;15.00;71.30
62573;DHT22;48626;51.678;5.806;2022-09-01T04:35:05;14.90;71.30
62573;DHT22;48626;51.678;5.806;2022-09-01T04:37:32;14.90;71.30
62573;DHT22;48626;51.678;5.806;2022-09-01T04:40:02;14.90;71.40
62573;DHT22;48626;51.678;5.806;2022-09-01T04:42:29;14.90;71.40
62573;DHT22;48626;51.678;5.806;2022-09-01T04:44:57;14.80;71.30
62573;DHT22;48626;51.678;5.806;2022-09-01T04:47:24;14.80;71.70
62573;DHT22;48626;51.678;5.806;2022-09-01T04:49:57;14.80;71.60
62573;DHT22;48626;51.678;5.806;2022-09-01T04:52:25;14.80;71.70
62573;DHT22;48626;51.678;5.806;2022-09-01T04:54:51;14.80;71.70
62573;DHT22;48626;51.678;5.806;2022-09-01T04:57:19;14.80;71.70
62573;DHT22;48626;51.678;5.806;2022-09-01T04:59:45;14.70;71.80
62573;DHT22;48626;51.678;5.806;2022-09-01T05:02:11;14.70;71.70
62573;DHT22;48626;51.678;5.806;2022-09-01T05:04:37;14.70;71.70
62573;DHT22;48626;51.678;5.806;2022-09-01T05:07:06;14.70;71.80
62573;DHT22;48626;51.678;5.806;2022-09-01T05:09:34;14.70;71.90
62573;DHT22;48626;51.678;5.806;2022-09-01T05:12:02;14.70;71.90
62573;DHT22;48626;51.678;5.806;2022-09-01T05:14:39;14.70;72.10
62573;DHT22;48626;51.678;5.806;2022-09-01T05:17:10;14.70;72.00
62573;DHT22;48626;51.678;5.806;2022-09-01T05:19:38;14.70;72.00
62573;DHT22;48626;51.678;5.806;2022-09-01T05:22:06;14.70;72.20
62573;DHT22;48626;51.678;5.806;2022-09-01T05:24:33;14.70;72.20
62573;DHT22;48626;51.678;5.806;2022-09-01T05:27:00;14.70;72.40
62573;DHT22;48626;51.678;5.806;2022-09-01T05:29:27;14.70;72.50
62573;DHT22;48626;51.678;5.806;2022-09-01T05:31:54;14.70;72.40
62573;DHT22;48626;51.678;5.806;2022-09-01T05:34:20;14.80;72.50
62573;DHT22;48626;51.678;5.806;2022-09-01T05:36:56;14.80;72.70
62573;DHT22;48626;51.678;5.806;2022-09-01T05:39:24;14.90;72.70
62573;DHT22;48626;51.678;5.806;2022-09-01T05:41:50;14.90;72.90
62573;DHT22;48626;51.678;5.806;2022-09-01T05:44:17;14.90;72.70
62573;DHT22;48626;51.678;5.806;2022-09-01T05:46:43;15.00;72.60
62573;DHT22;48626;51.678;5.806;2022-09-01T05:49:12;15.00;72.60
62573;DHT22;48626;51.678;5.806;2022-09-01T05:51:42;15.10;72.40
62573;DHT22;48626;51.678;5.806;2022-09-01T05:54:09;15.10;72.60
62573;DHT22;48626;51.678;5.806;2022-09-01T05:56:37;15.20;72.40
62573;DHT22;48626;51.678;5.806;2022-09-01T05:59:06;15.30;72.60
62573;DHT22;48626;51.678;5.806;2022-09-01T06:01:32;15.30;72.90
62573;DHT22;48626;51.678;5.806;2022-09-01T06:04:00;15.40;72.40
62573;DHT22;48626;51.678;5.806;2022-09-01T06:06:32;15.60;72.10
62573;DHT22;48626;51.678;5.806;2022-09-01T06:09:01;15.80;72.50
62573;DHT22;48626;51.678;5.806;2022-09-01T06:11:27;15.90;72.40
62573;DHT22;48626;51.678;5.806;2022-09-01T06:13:58;16.00;72.10
62573;DHT22;48626;51.678;5.806;2022-09-01T06:16:24;16.10;71.00
62573;DHT22;48626;51.678;5.806;2022-09-01T06:18:51;16.20;70.30
62573;DHT22;48626;51.678;5.806;2022-09-01T06:21:19;16.20;70.50
62573;DHT22;48626;51.678;5.806;2022-09-01T06:23:46;16.30;69.40
62573;DHT22;48626;51.678;5.806;2022-09-01T06:26:36;16.50;69.70
62573;DHT22;48626;51.678;5.806;2022-09-01T06:29:07;16.60;69.30
62573;DHT22;48626;51.678;5.806;2022-09-01T06:31:36;16.70;69.20
62573;DHT22;48626;51.678;5.806;2022-09-01T06:34:06;16.80;67.40
62573;DHT22;48626;51.678;5.806;2022-09-01T06:36:35;16.90;67.00
62573;DHT22;48626;51.678;5.806;2022-09-01T06:39:03;17.10;67.20
62573;DHT22;48626;51.678;5.806;2022-09-01T06:41:29;17.30;67.00
62573;DHT22;48626;51.678;5.806;2022-09-01T06:43:56;17.40;67.70
62573;DHT22;48626;51.678;5.806;2022-09-01T06:46:23;17.50;66.10
62573;DHT22;48626;51.678;5.806;2022-09-01T06:48:54;17.60;65.80
62573;DHT22;48626;51.678;5.806;2022-09-01T06:51:25;17.70;66.20
62573;DHT22;48626;51.678;5.806;2022-09-01T06:53:53;17.70;65.60
62573;DHT22;48626;51.678;5.806;2022-09-01T06:56:28;17.70;65.30
62573;DHT22;48626;51.678;5.806;2022-09-01T06:58:56;17.80;65.40
62573;DHT22;48626;51.678;5.806;2022-09-01T07:01:24;17.80;65.70
62573;DHT22;48626;51.678;5.806;2022-09-01T07:03:52;17.70;65.10
62573;DHT22;48626;51.678;5.806;2022-09-01T07:06:20;17.70;64.20
62573;DHT22;48626;51.678;5.806;2022-09-01T07:08:53;17.70;64.40
62573;DHT22;48626;51.678;5.806;2022-09-01T07:11:31;17.70;64.40
62573;DHT22;48626;51.678;5.806;2022-09-01T07:14:00;17.70;65.80
62573;DHT22;48626;51.678;5.806;2022-09-01T07:16:27;17.70;65.90
62573;DHT22;48626;51.678;5.806;2022-09-01T07:18:56;17.70;64.30
62573;DHT22;48626;51.678;5.806;2022-09-01T07:21:23;17.60;63.40
62573;DHT22;48626;51.678;5.806;2022-09-01T07:23:49;17.70;65.00
62573;DHT22;48626;51.678;5.806;2022-09-01T07:26:16;17.70;64.60
62573;DHT22;48626;51.678;5.806;2022-09-01T07:28:44;17.80;64.30
62573;DHT22;48626;51.678;5.806;2022-09-01T07:31:27;17.90;64.50
62573;DHT22;48626;51.678;5.806;2022-09-01T07:33:55;18.00;64.30
62573;DHT22;48626;51.678;5.806;2022-09-01T07:36:23;18.00;65.00
62573;DHT22;48626;51.678;5.806;2022-09-01T07:38:49;18.10;64.90
62573;DHT22;48626;51.678;5.806;2022-09-01T07:41:19;18.30;65.50
62573;DHT22;48626;51.678;5.806;2022-09-01T07:43:46;18.30;64.20
62573;DHT22;48626;51.678;5.806;2022-09-01T07:46:13;18.40;63.10
62573;DHT22;48626;51.678;5.806;2022-09-01T07:48:39;18.50;63.50
62573;DHT22;48626;51.678;5.806;2022-09-01T07:51:05;18.60;63.30
62573;DHT22;48626;51.678;5.806;2022-09-01T07:53:33;18.80;63.70
62573;DHT22;48626;51.678;5.806;2022-09-01T07:56:09;19.00;64.40
62573;DHT22;48626;51.678;5.806;2022-09-01T07:58:36;19.20;65.10
62573;DHT22;48626;51.678;5.806;2022-09-01T08:01:07;19.30;63.70
62573;DHT22;48626;51.678;5.806;2022-09-01T08:03:34;19.40;63.00
62573;DHT22;48626;51.678;5.806;2022-09-01T08:06:05;19.60;62.60
62573;DHT22;48626;51.678;5.806;2022-09-01T08:08:33;19.80;62.80
62573;DHT22;48626;51.678;5.806;2022-09-01T08:11:00;19.90;61.70
62573;DHT22;48626;51.678;5.806;2022-09-01T08:13:26;20.00;62.60
62573;DHT22;48626;51.678;5.806;2022-09-01T08:15:52;20.10;60.50
62573;DHT22;48626;51.678;5.806;2022-09-01T08:18:18;20.20;59.70
62573;DHT22;48626;51.678;5.806;2022-09-01T08:20:44;20.30;61.10
62573;DHT22;48626;51.678;5.806;2022-09-01T08:23:17;20.40;62.10
62573;DHT22;48626;51.678;5.806;2022-09-01T08:25:44;20.50;60.80
62573;DHT22;48626;51.678;5.806;2022-09-01T08:28:11;20.60;60.10
62573;DHT22;48626;51.678;5.806;2022-09-01T08:30:39;20.70;59.10
62573;DHT22;48626;51.678;5.806;2022-09-01T08:33:05;20.80;58.60
62573;DHT22;48626;51.678;5.806;2022-09-01T08:35:31;20.90;58.80
62573;DHT22;48626;51.678;5.806;2022-09-01T08:37:57;21.10;58.80
62573;DHT22;48626;51.678;5.806;2022-09-01T08:40:24;21.20;55.70
62573;DHT22;48626;51.678;5.806;2022-09-01T08:49:20;21.50;56.20
62573;DHT22;48626;51.678;5.806;2022-09-01T08:54:45;21.60;54.90
62573;DHT22;48626;51.678;5.806;2022-09-01T08:57:36;21.70;54.50
62573;DHT22;48626;51.678;5.806;2022-09-01T09:00:09;21.90;53.30
62573;DHT22;48626;51.678;5.806;2022-09-01T09:14:50;22.30;53.40
62573;DHT22;48626;51.678;5.806;2022-09-01T09:17:21;22.40;54.30
62573;DHT22;48626;51.678;5.806;2022-09-01T09:19:47;22.50;54.10
62573;DHT22;48626;51.678;5.806;2022-09-01T09:22:16;22.70;53.20
62573;DHT22;48626;51.678;5.806;2022-09-01T09:27:32;22.90;52.70
62573;DHT22;48626;51.678;5.806;2022-09-01T09:30:06;22.90;51.70
62573;DHT22;48626;51.678;5.806;2022-09-01T09:32:57;23.00;50.90
62573;DHT22;48626;51.678;5.806;2022-09-01T09:35:29;23.20;51.80
62573;DHT22;48626;51.678;5.806;2022-09-01T09:38:20;23.30;50.20
62573;DHT22;48626;51.678;5.806;2022-09-01T09:41:01;23.30;47.00
62573;DHT22;48626;51.678;5.806;2022-09-01T09:43:30;23.40;49.80
62573;DHT22;48626;51.678;5.806;2022-09-01T09:46:35;23.40;48.10
62573;DHT22;48626;51.678;5.806;2022-09-01T09:51:53;23.60;50.10
62573;DHT22;48626;51.678;5.806;2022-09-01T09:54:28;23.60;46.60
62573;DHT22;48626;51.678;5.806;2022-09-01T09:57:14;23.80;45.90
62573;DHT22;48626;51.678;5.806;2022-09-01T10:02:36;24.00;45.70
62573;DHT22;48626;51.678;5.806;2022-09-01T10:07:49;24.40;47.00
62573;DHT22;48626;51.678;5.806;2022-09-01T10:10:30;24.50;44.20
62573;DHT22;48626;51.678;5.806;2022-09-01T10:12:57;24.60;44.50
62573;DHT22;48626;51.678;5.806;2022-09-01T10:15:29;24.70;43.20
62573;DHT22;48626;51.678;5.806;2022-09-01T10:18:01;24.90;41.80
62573;DHT22;48626;51.678;5.806;2022-09-01T10:20:28;25.00;41.50
62573;DHT22;48626;51.678;5.806;2022-09-01T10:22:55;25.20;44.10
62573;DHT22;48626;51.678;5.806;2022-09-01T10:25:32;25.40;41.40
62573;DHT22;48626;51.678;5.806;2022-09-01T10:28:14;25.60;46.60
62573;DHT22;48626;51.678;5.806;2022-09-01T10:30:43;25.90;43.70
62573;DHT22;48626;51.678;5.806;2022-09-01T10:33:13;25.90;39.50
62573;DHT22;48626;51.678;5.806;2022-09-01T10:35:44;26.10;41.60
62573;DHT22;48626;51.678;5.806;2022-09-01T10:38:16;26.20;41.20
62573;DHT22;48626;51.678;5.806;2022-09-01T10:40:54;26.10;37.50
62573;DHT22;48626;51.678;5.806;2022-09-01T10:43:45;26.20;36.80
62573;DHT22;48626;51.678;5.806;2022-09-01T10:48:49;26.50;38.00
62573;DHT22;48626;51.678;5.806;2022-09-01T10:53:47;27.20;36.90
62573;DHT22;48626;51.678;5.806;2022-09-01T10:56:37;27.40;39.40
62573;DHT22;48626;51.678;5.806;2022-09-01T10:59:04;27.40;32.60
62573;DHT22;48626;51.678;5.806;2022-09-01T11:04:23;27.90;40.70
62573;DHT22;48626;51.678;5.806;2022-09-01T11:09:45;28.00;37.10
62573;DHT22;48626;51.678;5.806;2022-09-01T11:15:03;28.60;37.00
62573;DHT22;48626;51.678;5.806;2022-09-01T11:18:04;28.90;35.00
62573;DHT22;48626;51.678;5.806;2022-09-01T11:20:33;28.80;34.20
62573;DHT22;48626;51.678;5.806;2022-09-01T11:25:44;29.10;30.90
62573;DHT22;48626;51.678;5.806;2022-09-01T11:36:31;30.30;36.60
62573;DHT22;48626;51.678;5.806;2022-09-01T11:41:55;31.00;32.10
62573;DHT22;48626;51.678;5.806;2022-09-01T11:47:13;31.40;32.50
62573;DHT22;48626;51.678;5.806;2022-09-01T11:49:59;31.40;31.20
62573;DHT22;48626;51.678;5.806;2022-09-01T11:52:29;31.50;34.90
62573;DHT22;48626;51.678;5.806;2022-09-01T11:54:57;31.60;32.20
62573;DHT22;48626;51.678;5.806;2022-09-01T11:57:39;31.70;31.90
62573;DHT22;48626;51.678;5.806;2022-09-01T12:00:09;31.90;28.60
62573;DHT22;48626;51.678;5.806;2022-09-01T12:02:45;32.00;30.60
62573;DHT22;48626;51.678;5.806;2022-09-01T12:05:28;32.40;33.10
62573;DHT22;48626;51.678;5.806;2022-09-01T12:07:54;32.80;35.60
62573;DHT22;48626;51.678;5.806;2022-09-01T12:10:34;33.00;31.00
62573;DHT22;48626;51.678;5.806;2022-09-01T12:15:40;33.20;29.50
62573;DHT22;48626;51.678;5.806;2022-09-01T12:20:36;33.50;28.80
62573;DHT22;48626;51.678;5.806;2022-09-01T12:25:50;34.00;28.60
62573;DHT22;48626;51.678;5.806;2022-09-01T12:28:17;34.20;30.10
62573;DHT22;48626;51.678;5.806;2022-09-01T12:30:43;34.30;26.20
62573;DHT22;48626;51.678;5.806;2022-09-01T12:33:11;34.30;26.70
62573;DHT22;48626;51.678;5.806;2022-09-01T12:35:38;34.60;27.60
62573;DHT22;48626;51.678;5.806;2022-09-01T12:38:36;34.90;27.70
62573;DHT22;48626;51.678;5.806;2022-09-01T12:41:01;34.90;29.70
62573;DHT22;48626;51.678;5.806;2022-09-01T12:43:46;34.90;27.50
62573;DHT22;48626;51.678;5.806;2022-09-01T12:46:40;35.20;26.30
62573;DHT22;48626;51.678;5.806;2022-09-01T12:49:24;35.20;24.70
62573;DHT22;48626;51.678;5.806;2022-09-01T12:54:36;35.40;29.20
62573;DHT22;48626;51.678;5.806;2022-09-01T12:57:02;35.80;27.20
62573;DHT22;48626;51.678;5.806;2022-09-01T12:59:28;36.20;28.60
62573;DHT22;48626;51.678;5.806;2022-09-01T13:01:54;36.40;27.90
62573;DHT22;48626;51.678;5.806;2022-09-01T13:06:52;36.50;24.60
62573;DHT22;48626;51.678;5.806;2022-09-01T13:09:18;36.50;26.50
62573;DHT22;48626;51.678;5.806;2022-09-01T13:11:44;36.60;24.60
62573;DHT22;48626;51.678;5.806;2022-09-01T13:14:14;36.50;26.10
62573;DHT22;48626;51.678;5.806;2022-09-01T13:16:40;36.70;26.20
62573;DHT22;48626;51.678;5.806;2022-09-01T13:19:07;37.10;26.50
62573;DHT22;48626;51.678;5.806;2022-09-01T13:21:34;37.00;26.00
62573;DHT22;48626;51.678;5.806;2022-09-01T13:24:05;37.10;25.50
62573;DHT22;48626;51.678;5.806;2022-09-01T13:26:31;36.80;25.50
62573;DHT22;48626;51.678;5.806;2022-09-01T13:28:57;37.10;23.70
62573;DHT22;48626;51.678;5.806;2022-09-01T13:31:24;36.90;23.20
62573;DHT22;48626;51.678;5.806;2022-09-01T13:33:49;37.20;23.60
62573;DHT22;48626;51.678;5.806;2022-09-01T13:36:15;37.40;22.80
62573;DHT22;48626;51.678;5.806;2022-09-01T13:38:41;37.70;23.80
62573;DHT22;48626;51.678;5.806;2022-09-01T13:41:06;37.80;24.10
62573;DHT22;48626;51.678;5.806;2022-09-01T13:43:35;37.30;23.60
62573;DHT22;48626;51.678;5.806;2022-09-01T13:46:01;37.40;23.50
62573;DHT22;48626;51.678;5.806;2022-09-01T13:48:27;36.90;22.10
62573;DHT22;48626;51.678;5.806;2022-09-01T13:50:53;36.10;22.30
62573;DHT22;48626;51.678;5.806;2022-09-01T13:53:20;35.10;22.50
62573;DHT22;48626;51.678;5.806;2022-09-01T13:55:47;34.50;24.60
62573;DHT22;48626;51.678;5.806;2022-09-01T13:58:13;34.00;24.50
62573;DHT22;48626;51.678;5.806;2022-09-01T14:00:42;33.40;26.10
62573;DHT22;48626;51.678;5.806;2022-09-01T14:03:10;32.80;26.20
62573;DHT22;48626;51.678;5.806;2022-09-01T14:05:39;32.50;29.80
62573;DHT22;48626;51.678;5.806;2022-09-01T14:08:06;32.00;28.50
62573;DHT22;48626;51.678;5.806;2022-09-01T14:10:35;31.60;27.50
62573;DHT22;48626;51.678;5.806;2022-09-01T14:13:01;31.10;26.50
62573;DHT22;48626;51.678;5.806;2022-09-01T14:15:27;30.80;32.10
62573;DHT22;48626;51.678;5.806;2022-09-01T14:17:55;30.70;28.30
62573;DHT22;48626;51.678;5.806;2022-09-01T14:20:24;30.50;28.50
62573;DHT22;48626;51.678;5.806;2022-09-01T14:22:51;30.20;27.90
62573;DHT22;48626;51.678;5.806;2022-09-01T14:25:18;29.90;29.70
62573;DHT22;48626;51.678;5.806;2022-09-01T14:27:45;30.00;29.90
62573;DHT22;48626;51.678;5.806;2022-09-01T14:30:19;30.50;30.00
62573;DHT22;48626;51.678;5.806;2022-09-01T14:32:46;30.50;29.40
62573;DHT22;48626;51.678;5.806;2022-09-01T14:35:13;30.10;29.20
62573;DHT22;48626;51.678;5.806;2022-09-01T14:37:39;29.80;29.20
62573;DHT22;48626;51.678;5.806;2022-09-01T14:40:06;29.60;28.80
62573;DHT22;48626;51.678;5.806;2022-09-01T14:42:33;29.20;28.40
62573;DHT22;48626;51.678;5.806;2022-09-01T14:45:00;29.00;29.40
62573;DHT22;48626;51.678;5.806;2022-09-01T14:47:26;28.70;29.60
62573;DHT22;48626;51.678;5.806;2022-09-01T14:49:52;28.50;28.60
62573;DHT22;48626;51.678;5.806;2022-09-01T14:52:18;28.20;31.30
62573;DHT22;48626;51.678;5.806;2022-09-01T14:54:43;28.10;30.30
62573;DHT22;48626;51.678;5.806;2022-09-01T14:57:10;28.30;31.40
62573;DHT22;48626;51.678;5.806;2022-09-01T14:59:36;29.40;32.80
62573;DHT22;48626;51.678;5.806;2022-09-01T15:02:03;30.80;32.90
62573;DHT22;48626;51.678;5.806;2022-09-01T15:04:29;31.90;28.80
62573;DHT22;48626;51.678;5.806;2022-09-01T15:06:55;32.80;27.70
62573;DHT22;48626;51.678;5.806;2022-09-01T15:09:21;33.60;27.80
62573;DHT22;48626;51.678;5.806;2022-09-01T15:11:47;33.60;26.20
62573;DHT22;48626;51.678;5.806;2022-09-01T15:14:13;33.00;25.90
62573;DHT22;48626;51.678;5.806;2022-09-01T15:16:39;32.70;28.30
62573;DHT22;48626;51.678;5.806;2022-09-01T15:19:11;32.00;28.40
62573;DHT22;48626;51.678;5.806;2022-09-01T15:21:38;31.50;27.90
62573;DHT22;48626;51.678;5.806;2022-09-01T15:24:05;30.90;27.50
62573;DHT22;48626;51.678;5.806;2022-09-01T15:26:32;30.30;28.40
62573;DHT22;48626;51.678;5.806;2022-09-01T15:28:58;29.90;29.20
62573;DHT22;48626;51.678;5.806;2022-09-01T15:31:27;29.50;27.30
62573;DHT22;48626;51.678;5.806;2022-09-01T15:33:58;29.10;28.50
62573;DHT22;48626;51.678;5.806;2022-09-01T15:36:26;29.20;28.90
62573;DHT22;48626;51.678;5.806;2022-09-01T15:38:53;29.50;27.80
62573;DHT22;48626;51.678;5.806;2022-09-01T15:41:22;29.80;29.20
62573;DHT22;48626;51.678;5.806;2022-09-01T15:43:48;29.90;29.70
62573;DHT22;48626;51.678;5.806;2022-09-01T15:46:14;29.80;30.10
62573;DHT22;48626;51.678;5.806;2022-09-01T15:48:40;30.10;30.80
62573;DHT22;48626;51.678;5.806;2022-09-01T15:56:31;30.20;29.50
62573;DHT22;48626;51.678;5.806;2022-09-01T15:58:58;29.80;29.10
62573;DHT22;48626;51.678;5.806;2022-09-01T16:01:25;29.80;29.50
62573;DHT22;48626;51.678;5.806;2022-09-01T16:03:53;29.60;29.90
62573;DHT22;48626;51.678;5.806;2022-09-01T16:06:19;29.40;29.90
62573;DHT22;48626;51.678;5.806;2022-09-01T16:08:45;29.00;29.50
62573;DHT22;48626;51.678;5.806;2022-09-01T16:11:11;28.70;31.30
62573;DHT22;48626;51.678;5.806;2022-09-01T16:13:41;28.40;30.80
62573;DHT22;48626;51.678;5.806;2022-09-01T16:16:30;28.10;30.80
62573;DHT22;48626;51.678;5.806;2022-09-01T16:22:21;27.60;33.60
62573;DHT22;48626;51.678;5.806;2022-09-01T16:24:50;27.30;32.30
62573;DHT22;48626;51.678;5.806;2022-09-01T16:27:21;27.10;32.60
62573;DHT22;48626;51.678;5.806;2022-09-01T16:29:57;27.30;33.80
62573;DHT22;48626;51.678;5.806;2022-09-01T16:32:23;27.60;32.80
62573;DHT22;48626;51.678;5.806;2022-09-01T16:34:50;27.70;32.50
62573;DHT22;48626;51.678;5.806;2022-09-01T16:40:35;27.60;32.30
62573;DHT22;48626;51.678;5.806;2022-09-01T16:43:05;27.40;34.00
62573;DHT22;48626;51.678;5.806;2022-09-01T16:48:08;26.40;31.80
62573;DHT22;48626;51.678;5.806;2022-09-01T16:51:01;26.20;33.40
62573;DHT22;48626;51.678;5.806;2022-09-01T16:56:31;26.00;35.10
62573;DHT22;48626;51.678;5.806;2022-09-01T17:04:51;25.70;35.30
62573;DHT22;48626;51.678;5.806;2022-09-01T17:15:01;25.30;37.10
62573;DHT22;48626;51.678;5.806;2022-09-01T17:20:07;25.10;35.40
62573;DHT22;48626;51.678;5.806;2022-09-01T17:22:35;24.90;34.80
62573;DHT22;48626;51.678;5.806;2022-09-01T17:25:06;24.90;35.50
62573;DHT22;48626;51.678;5.806;2022-09-01T17:27:45;24.80;35.40
62573;DHT22;48626;51.678;5.806;2022-09-01T17:30:13;24.70;35.70
62573;DHT22;48626;51.678;5.806;2022-09-01T17:32:54;24.70;36.10
62573;DHT22;48626;51.678;5.806;2022-09-01T17:41:42;24.40;37.30
62573;DHT22;48626;51.678;5.806;2022-09-01T18:01:03;23.80;38.70
62573;DHT22;48626;51.678;5.806;2022-09-01T18:09:10;23.50;38.90